Time;durP1;ratioP1;P1;durP2;ratioP2;P2;SDS_P1;SDS_P2;PMS_P1;PMS_P2;Temp;Humidity;BMP_temperature;BMP_pressure;BME280_temperature;BME280_humidity;BME280_pressure;Samples;Min_cycle;Max_cycle;Signal;HPM_P1;HPM_P2
2022/12/13 00:01:53;;;;;;;77.97;35.25;;;;;;;;;;5035677;28;20053;-75
2022/12/13 00:04:21;;;;;;;66.97;33.10;;;;;;;;;;5047212;28;20041;-75
2022/12/13 00:06:47;;;;;;;67.32;33.65;;;;;;;;;;5046137;28;20033;-75
2022/12/13 00:09:18;;;;;;;71.80;32.90;;;;;;;;;;5046850;28;20132;-75
2022/12/13 00:11:44;;;;;;;67.00;33.40;;;;;;;;;;5050876;28;20048;-75
2022/12/13 00:14:12;;;;;;;72.93;35.72;;;;;;;;;;5052118;28;20049;-75
2022/12/13 00:16:39;;;;;;;79.70;37.45;;;;;;;;;;5046461;28;20041;-75
2022/12/13 00:19:05;;;;;;;75.97;36.35;;;;;;;;;;5054900;28;20520;-75
2022/12/13 00:21:32;;;;;;;78.88;36.40;;;;;;;;;;5035610;28;20380;-75
2022/12/13 00:23:59;;;;;;;75.38;35.92;;;;;;;;;;5053716;28;20056;-75
2022/12/13 00:26:27;;;;;;;78.75;35.92;;;;;;;;;;5046866;28;20048;-74
2022/12/13 00:28:53;;;;;;;72.10;34.88;;;;;;;;;;5033324;28;20056;-75
2022/12/13 00:31:20;;;;;;;75.95;35.75;;;;;;;;;;5048467;28;20044;-74
2022/12/13 00:33:47;;;;;;;74.50;35.35;;;;;;;;;;5045467;28;20113;-74
2022/12/13 00:36:13;;;;;;;72.63;34.58;;;;;;;;;;5046345;28;20515;-75
2022/12/13 00:38:40;;;;;;;73.18;34.80;;;;;;;;;;5046341;28;20175;-74
2022/12/13 00:41:13;;;;;;;70.13;34.58;;;;;;;;;;5046286;28;20037;-75
2022/12/13 00:43:39;;;;;;;80.40;36.58;;;;;;;;;;5044749;28;20047;-75
2022/12/13 00:46:07;;;;;;;79.32;36.38;;;;;;;;;;5046034;28;20049;-75
2022/12/13 00:48:33;;;;;;;78.32;34.85;;;;;;;;;;5046397;28;20048;-75
2022/12/13 00:50:59;;;;;;;83.82;37.65;;;;;;;;;;5046128;28;20041;-75
2022/12/13 00:53:25;;;;;;;82.78;35.65;;;;;;;;;;5045795;28;20053;-75
2022/12/13 00:55:51;;;;;;;78.00;34.88;;;;;;;;;;5049727;28;20064;-75
2022/12/13 00:58:17;;;;;;;80.43;35.40;;;;;;;;;;5045873;28;20044;-75
2022/12/13 01:00:43;;;;;;;75.28;35.95;;;;;;;;;;5045195;28;20057;-75
2022/12/13 01:03:19;;;;;;;78.03;35.33;;;;;;;;;;5045101;28;20755;-75
2022/12/13 01:05:48;;;;;;;72.68;33.63;;;;;;;;;;5045835;28;20040;-75
2022/12/13 01:08:15;;;;;;;73.40;35.10;;;;;;;;;;5044983;28;20103;-75
2022/12/13 01:10:44;;;;;;;81.78;35.10;;;;;;;;;;5047913;28;20597;-75
2022/12/13 01:13:11;;;;;;;72.55;34.25;;;;;;;;;;5045993;28;20037;-75
2022/12/13 01:15:44;;;;;;;75.80;34.72;;;;;;;;;;5045761;28;21191;-75
2022/12/13 01:18:11;;;;;;;68.50;34.15;;;;;;;;;;5045964;28;20041;-75
2022/12/13 01:20:37;;;;;;;73.88;35.08;;;;;;;;;;5046226;28;20041;-75
2022/12/13 01:23:04;;;;;;;74.32;33.83;;;;;;;;;;5047375;28;20086;-75
2022/12/13 01:25:32;;;;;;;72.82;33.60;;;;;;;;;;5052763;28;20511;-75
2022/12/13 01:27:58;;;;;;;77.55;33.47;;;;;;;;;;5034154;28;20045;-75
2022/12/13 01:30:24;;;;;;;69.00;32.42;;;;;;;;;;5051932;28;20045;-74
2022/12/13 01:32:50;;;;;;;71.78;33.92;;;;;;;;;;5048001;28;20088;-75
2022/12/13 01:35:16;;;;;;;74.10;34.70;;;;;;;;;;5052958;28;20091;-75
2022/12/13 01:37:42;;;;;;;76.25;35.67;;;;;;;;;;5051693;28;20045;-75
2022/12/13 01:40:09;;;;;;;75.15;34.45;;;;;;;;;;5035492;28;20045;-75
2022/12/13 01:42:39;;;;;;;72.97;34.25;;;;;;;;;;5049006;28;20480;-75
2022/12/13 01:45:20;;;;;;;69.55;33.83;;;;;;;;;;5053793;28;20081;-75
2022/12/13 01:47:46;;;;;;;;;;;;;;;;;;5036651;28;20074;-74
2022/12/13 01:50:17;;;;;;;76.63;33.17;;;;;;;;;;5054029;28;19920;-75
2022/12/13 01:52:43;;;;;;;;;;;;;;;;;;5054731;28;20048;-75
2022/12/13 01:55:10;;;;;;;72.70;32.55;;;;;;;;;;5053812;28;19927;-75
2022/12/13 01:57:38;;;;;;;72.75;33.58;;;;;;;;;;5053995;28;20048;-75
2022/12/13 02:00:06;;;;;;;68.25;32.00;;;;;;;;;;5051314;28;20458;-75
2022/12/13 02:02:32;;;;;;;68.25;34.15;;;;;;;;;;5052709;28;20130;-75
2022/12/13 02:05:04;;;;;;;74.18;35.78;;;;;;;;;;5053795;28;20074;-75
2022/12/13 02:07:32;;;;;;;80.20;37.95;;;;;;;;;;5053503;28;20056;-75
2022/12/13 02:09:59;;;;;;;76.35;36.10;;;;;;;;;;5043910;28;20111;-75
2022/12/13 02:12:30;;;;;;;75.47;34.70;;;;;;;;;;5048122;28;20091;-75
2022/12/13 02:14:56;;;;;;;;;;;;;;;;;;5044899;28;20048;-75
2022/12/13 02:17:32;;;;;;;69.03;32.30;;;;;;;;;;5044498;28;19935;-75
2022/12/13 02:20:17;;;;;;;73.00;33.28;;;;;;;;;;5043141;28;20396;-75
2022/12/13 02:22:43;;;;;;;70.45;33.40;;;;;;;;;;5043671;28;20061;-74
2022/12/13 02:25:29;;;;;;;67.78;32.83;;;;;;;;;;5044329;28;20042;-74
2022/12/13 02:28:10;;;;;;;77.82;36.72;;;;;;;;;;5032997;28;20525;-74
2022/12/13 02:30:46;;;;;;;71.03;33.45;;;;;;;;;;5042259;28;20045;-74
2022/12/13 02:33:21;;;;;;;69.25;33.10;;;;;;;;;;5045300;28;20041;-74
2022/12/13 02:35:54;;;;;;;69.13;33.05;;;;;;;;;;5042782;28;20479;-74
2022/12/13 02:38:33;;;;;;;69.03;34.13;;;;;;;;;;5049240;28;20045;-74
2022/12/13 02:41:04;;;;;;;71.43;34.42;;;;;;;;;;5043935;28;20703;-74
2022/12/13 02:43:40;;;;;;;67.32;32.15;;;;;;;;;;5026164;28;20053;-75
2022/12/13 02:46:07;;;;;;;63.08;32.13;;;;;;;;;;5043671;28;20049;-74
2022/12/13 02:48:36;;;;;;;73.68;35.63;;;;;;;;;;5045383;28;20048;-75
2022/12/13 02:51:03;;;;;;;80.88;35.42;;;;;;;;;;5043330;28;20385;-74
2022/12/13 02:53:29;;;;;;;77.63;34.65;;;;;;;;;;5043532;28;20811;-74
2022/12/13 02:55:55;;;;;;;78.82;36.30;;;;;;;;;;5026609;28;20056;-74
2022/12/13 02:58:33;;;;;;;83.65;36.67;;;;;;;;;;5042919;28;20041;-75
2022/12/13 03:01:07;;;;;;;80.10;36.33;;;;;;;;;;5043285;28;20049;-74
2022/12/13 03:03:41;;;;;;;77.22;35.00;;;;;;;;;;5043037;28;20403;-74
2022/12/13 03:06:29;;;;;;;82.05;35.03;;;;;;;;;;5044053;28;20514;-74
2022/12/13 03:09:06;;;;;;;82.82;35.05;;;;;;;;;;5042517;28;20657;-75
2022/12/13 03:14:22;;;;;;;74.40;35.70;;;;;;;;;;5025422;28;20049;-74
2022/12/13 03:16:49;;;;;;;79.97;37.05;;;;;;;;;;5043998;28;20044;-75
2022/12/13 03:19:15;;;;;;;80.22;35.83;;;;;;;;;;5043710;28;20059;-74
2022/12/13 03:21:42;;;;;;;79.28;36.15;;;;;;;;;;5044075;28;20037;-74
2022/12/13 03:24:08;;;;;;;80.13;35.53;;;;;;;;;;5042991;28;20489;-74
2022/12/13 03:26:36;;;;;;;80.40;36.25;;;;;;;;;;5042899;28;20052;-74
2022/12/13 03:29:02;;;;;;;76.32;35.95;;;;;;;;;;5043586;28;20114;-75
2022/12/13 03:31:28;;;;;;;83.63;37.60;;;;;;;;;;5044755;28;20059;-74
2022/12/13 03:33:54;;;;;;;83.47;36.40;;;;;;;;;;5047405;28;20045;-74
2022/12/13 03:36:21;;;;;;;79.90;36.00;;;;;;;;;;5031194;28;20067;-74
2022/12/13 03:38:48;;;;;;;86.10;37.40;;;;;;;;;;5056509;28;20048;-75
2022/12/13 03:41:16;;;;;;;78.20;36.60;;;;;;;;;;5038117;28;20541;-75
2022/12/13 03:43:42;;;;;;;83.75;36.67;;;;;;;;;;5055444;28;20048;-75
2022/12/13 03:46:09;;;;;;;83.88;37.75;;;;;;;;;;5055383;28;20097;-75
2022/12/13 03:48:35;;;;;;;79.70;36.30;;;;;;;;;;5057063;28;20410;-75
2022/12/13 03:51:01;;;;;;;84.82;37.25;;;;;;;;;;5037277;28;20552;-75
2022/12/13 03:53:28;;;;;;;84.07;36.00;;;;;;;;;;5054632;28;20091;-74
2022/12/13 03:55:54;;;;;;;80.70;36.58;;;;;;;;;;5054951;28;20045;-74
2022/12/13 03:58:20;;;;;;;85.93;37.67;;;;;;;;;;5054399;28;20049;-74
2022/12/13 04:00:47;;;;;;;81.45;37.17;;;;;;;;;;5055857;28;20059;-74
2022/12/13 04:03:13;;;;;;;88.25;37.38;;;;;;;;;;5020704;28;20041;-74
2022/12/13 04:05:39;;;;;;;86.93;37.92;;;;;;;;;;5052610;28;20398;-75
2022/12/13 04:08:05;;;;;;;80.85;37.28;;;;;;;;;;5055706;28;20507;-74
2022/12/13 04:10:32;;;;;;;84.97;37.80;;;;;;;;;;5037991;28;20072;-74
2022/12/13 04:15:47;;;;;;;80.50;37.30;;;;;;;;;;5047035;28;20127;-74
2022/12/13 04:18:15;;;;;;;88.80;37.10;;;;;;;;;;5046108;28;20110;-74
2022/12/13 04:20:41;;;;;;;85.78;38.25;;;;;;;;;;5046264;28;20044;-74
2022/12/13 04:23:07;;;;;;;85.10;36.65;;;;;;;;;;5046992;28;20403;-75
2022/12/13 04:25:33;;;;;;;83.15;38.42;;;;;;;;;;5028863;28;20041;-75
2022/12/13 04:27:59;;;;;;;88.65;38.78;;;;;;;;;;5045487;28;20372;-74
2022/12/13 04:30:25;;;;;;;86.38;38.15;;;;;;;;;;5046969;28;20491;-75
2022/12/13 04:32:51;;;;;;;86.75;37.60;;;;;;;;;;5049060;28;20494;-75
2022/12/13 04:35:17;;;;;;;87.07;37.72;;;;;;;;;;5012353;28;20372;-74
2022/12/13 04:37:43;;;;;;;97.10;38.05;;;;;;;;;;5022627;28;20457;-74
2022/12/13 04:40:10;;;;;;;111.22;42.30;;;;;;;;;;5010562;28;20037;-74
2022/12/13 04:42:36;;;;;;;114.88;43.33;;;;;;;;;;5044854;28;20049;-75
2022/12/13 04:45:02;;;;;;;108.75;41.17;;;;;;;;;;5046214;28;20399;-74
2022/12/13 04:47:28;;;;;;;127.82;44.10;;;;;;;;;;5046223;28;20037;-75
2022/12/13 04:49:54;;;;;;;178.93;46.75;;;;;;;;;;5046264;28;20037;-75
2022/12/13 04:52:20;;;;;;;124.43;45.35;;;;;;;;;;5046030;28;20050;-74
2022/12/13 04:54:46;;;;;;;130.15;45.00;;;;;;;;;;5049429;28;20041;-75
2022/12/13 04:57:12;;;;;;;119.47;43.90;;;;;;;;;;5024652;28;20040;-74
2022/12/13 04:59:39;;;;;;;122.18;43.13;;;;;;;;;;5026803;28;20079;-74
2022/12/13 05:02:05;;;;;;;117.05;44.90;;;;;;;;;;5046032;28;20123;-74
2022/12/13 05:04:31;;;;;;;126.65;45.20;;;;;;;;;;5045682;28;20051;-74
2022/12/13 05:06:57;;;;;;;131.70;44.20;;;;;;;;;;5045407;28;20045;-74
2022/12/13 05:09:24;;;;;;;122.43;43.60;;;;;;;;;;5027238;28;20167;-74
2022/12/13 05:11:50;;;;;;;127.68;42.97;;;;;;;;;;5048498;28;20044;-75
2022/12/13 05:14:16;;;;;;;159.27;44.72;;;;;;;;;;5045113;28;20475;-74
2022/12/13 05:16:42;;;;;;;141.32;41.58;;;;;;;;;;5045613;28;20508;-74
2022/12/13 05:19:08;;;;;;;129.77;42.42;;;;;;;;;;5045863;28;20395;-74
2022/12/13 05:21:34;;;;;;;129.85;40.17;;;;;;;;;;5046066;28;20037;-74
2022/12/13 05:24:01;;;;;;;164.88;42.75;;;;;;;;;;5044639;28;20052;-75
2022/12/13 05:26:27;;;;;;;124.82;43.78;;;;;;;;;;5045714;28;20041;-74
2022/12/13 05:28:57;;;;;;;110.18;41.78;;;;;;;;;;5044549;28;20475;-75
2022/12/13 05:31:23;;;;;;;181.20;44.95;;;;;;;;;;5045996;28;20411;-75
2022/12/13 05:33:49;;;;;;;194.88;45.53;;;;;;;;;;5030914;28;20560;-74
2022/12/13 05:36:15;;;;;;;189.05;44.88;;;;;;;;;;5045691;28;20045;-74
2022/12/13 05:38:41;;;;;;;204.95;47.10;;;;;;;;;;5032009;28;20042;-75
2022/12/13 05:41:11;;;;;;;135.18;42.10;;;;;;;;;;5051964;28;20048;-75
2022/12/13 05:43:37;;;;;;;107.90;40.97;;;;;;;;;;5054170;28;20052;-75
2022/12/13 05:46:03;;;;;;;135.80;42.50;;;;;;;;;;5053712;28;20044;-75
2022/12/13 05:48:29;;;;;;;220.68;43.30;;;;;;;;;;5019605;28;20483;-75
2022/12/13 05:50:55;;;;;;;164.63;42.95;;;;;;;;;;5035980;28;20506;-75
2022/12/13 05:53:21;;;;;;;142.65;42.47;;;;;;;;;;5054058;28;20453;-75
2022/12/13 05:55:47;;;;;;;124.70;42.42;;;;;;;;;;5050252;28;20053;-75
2022/12/13 05:58:15;;;;;;;144.07;41.67;;;;;;;;;;5052279;28;20087;-74
2022/12/13 06:00:41;;;;;;;156.45;44.63;;;;;;;;;;5051920;28;20064;-74
2022/12/13 06:03:07;;;;;;;194.43;43.33;;;;;;;;;;5035826;28;20048;-74
2022/12/13 06:05:33;;;;;;;135.43;43.45;;;;;;;;;;5052445;28;20048;-74
2022/12/13 06:07:59;;;;;;;148.07;44.17;;;;;;;;;;5035780;28;20052;-75
2022/12/13 06:10:26;;;;;;;153.57;43.90;;;;;;;;;;5053510;28;20607;-75
2022/12/13 06:12:52;;;;;;;126.45;39.83;;;;;;;;;;5048562;28;20082;-75
2022/12/13 06:15:19;;;;;;;145.32;40.95;;;;;;;;;;5009838;28;20049;-74
2022/12/13 06:17:45;;;;;;;126.97;40.90;;;;;;;;;;5026754;28;20041;-74
2022/12/13 06:20:11;;;;;;;121.05;37.60;;;;;;;;;;5043389;28;20033;-74
2022/12/13 06:22:37;;;;;;;132.98;40.67;;;;;;;;;;5044882;28;20059;-74
2022/12/13 06:25:04;;;;;;;130.98;38.58;;;;;;;;;;5043753;28;20453;-74
2022/12/13 06:27:30;;;;;;;134.07;38.50;;;;;;;;;;5041361;28;20040;-75
2022/12/13 06:29:56;;;;;;;108.80;37.30;;;;;;;;;;5044727;28;20110;-74
2022/12/13 06:32:22;;;;;;;102.25;37.58;;;;;;;;;;5045085;28;20491;-75
2022/12/13 06:34:48;;;;;;;137.70;37.83;;;;;;;;;;5042667;28;20060;-74
2022/12/13 06:37:14;;;;;;;114.75;37.13;;;;;;;;;;5047788;28;20045;-74
2022/12/13 06:39:40;;;;;;;97.95;36.38;;;;;;;;;;5044115;28;20053;-75
2022/12/13 06:42:07;;;;;;;78.13;36.60;;;;;;;;;;5026041;28;20683;-75
2022/12/13 06:44:34;;;;;;;100.00;39.78;;;;;;;;;;5026378;28;20037;-75
2022/12/13 06:47:00;;;;;;;88.20;38.50;;;;;;;;;;5049220;28;20118;-75
2022/12/13 06:49:27;;;;;;;117.45;38.72;;;;;;;;;;5044083;28;20066;-75
2022/12/13 06:51:53;;;;;;;91.40;36.20;;;;;;;;;;5043342;28;20049;-75
2022/12/13 06:54:19;;;;;;;77.78;35.20;;;;;;;;;;5044351;28;20098;-74
2022/12/13 06:56:45;;;;;;;87.65;35.40;;;;;;;;;;5049029;28;20056;-75
2022/12/13 06:59:11;;;;;;;78.80;35.42;;;;;;;;;;5046320;28;20758;-75
2022/12/13 07:01:38;;;;;;;111.28;36.67;;;;;;;;;;5041501;28;20170;-75
2022/12/13 07:04:04;;;;;;;82.03;33.28;;;;;;;;;;5043241;28;20106;-75
2022/12/13 07:06:30;;;;;;;82.25;34.97;;;;;;;;;;5023833;28;20052;-75
2022/12/13 07:08:57;;;;;;;89.60;34.05;;;;;;;;;;5025724;28;20063;-74
2022/12/13 07:11:25;;;;;;;78.78;34.05;;;;;;;;;;5045723;28;20055;-75
2022/12/13 07:13:51;;;;;;;75.40;33.40;;;;;;;;;;5009141;28;20037;-75
2022/12/13 07:16:17;;;;;;;91.72;34.75;;;;;;;;;;5044466;28;20037;-75
2022/12/13 07:18:44;;;;;;;79.57;33.03;;;;;;;;;;5045668;28;20049;-75
2022/12/13 07:21:11;;;;;;;88.93;33.67;;;;;;;;;;5052192;28;20037;-75
2022/12/13 07:23:38;;;;;;;89.45;32.42;;;;;;;;;;5051875;28;20053;-75
2022/12/13 07:26:04;;;;;;;103.90;33.25;;;;;;;;;;5048271;28;20056;-74
2022/12/13 07:28:34;;;;;;;103.53;33.70;;;;;;;;;;5045948;28;20502;-75
2022/12/13 07:31:04;;;;;;;91.38;34.38;;;;;;;;;;5051057;28;20048;-75
2022/12/13 07:33:31;;;;;;;85.38;33.50;;;;;;;;;;5032136;28;20511;-75
2022/12/13 07:36:16;;;;;;;141.88;35.65;;;;;;;;;;5044387;28;20414;-74
2022/12/13 07:38:42;;;;;;;99.40;31.80;;;;;;;;;;5030409;28;20059;-75
2022/12/13 07:41:09;;;;;;;78.40;32.17;;;;;;;;;;5048244;28;20483;-75
2022/12/13 07:43:35;;;;;;;98.55;32.35;;;;;;;;;;5044380;28;20044;-75
2022/12/13 07:46:03;;;;;;;88.20;32.63;;;;;;;;;;5050766;28;20037;-75
2022/12/13 07:48:29;;;;;;;71.18;30.95;;;;;;;;;;5051307;28;20095;-75
2022/12/13 07:51:00;;;;;;;67.80;32.17;;;;;;;;;;5051290;28;20565;-75
2022/12/13 07:53:26;;;;;;;69.15;32.80;;;;;;;;;;5052087;28;20098;-75
2022/12/13 07:55:52;;;;;;;67.95;31.13;;;;;;;;;;5050082;28;20049;-75
2022/12/13 07:58:18;;;;;;;74.38;32.88;;;;;;;;;;5050018;28;20163;-75
2022/12/13 08:00:45;;;;;;;72.32;32.72;;;;;;;;;;5051050;28;20064;-75
2022/12/13 08:03:11;;;;;;;65.68;31.10;;;;;;;;;;5050002;28;20487;-75
2022/12/13 08:05:38;;;;;;;65.55;31.30;;;;;;;;;;5050917;28;20102;-75
2022/12/13 08:08:05;;;;;;;79.88;31.15;;;;;;;;;;5037858;28;20069;-75
2022/12/13 08:10:31;;;;;;;74.90;33.40;;;;;;;;;;5035707;28;20458;-75
2022/12/13 08:12:57;;;;;;;98.90;30.55;;;;;;;;;;5050531;28;20393;-75
2022/12/13 08:15:24;;;;;;;69.75;31.77;;;;;;;;;;5052404;28;20056;-75
2022/12/13 08:17:50;;;;;;;75.47;33.03;;;;;;;;;;5052428;28;20575;-75
2022/12/13 08:20:16;;;;;;;80.18;33.97;;;;;;;;;;5032666;28;20037;-75
2022/12/13 08:22:43;;;;;;;74.95;33.13;;;;;;;;;;5051420;28;20060;-75
2022/12/13 08:25:09;;;;;;;83.28;35.70;;;;;;;;;;5049266;28;20033;-75
2022/12/13 08:27:35;;;;;;;94.40;43.15;;;;;;;;;;5034697;28;20049;-75
2022/12/13 08:30:01;;;;;;;103.78;48.00;;;;;;;;;;5047058;28;20048;-75
2022/12/13 08:32:27;;;;;;;88.97;39.55;;;;;;;;;;5052605;28;20052;-75
2022/12/13 08:34:53;;;;;;;93.53;36.08;;;;;;;;;;5048989;28;20048;-75
2022/12/13 08:37:20;;;;;;;100.72;38.47;;;;;;;;;;5051571;28;20048;-75
2022/12/13 08:39:46;;;;;;;103.53;41.55;;;;;;;;;;5054891;28;20060;-75
2022/12/13 08:42:13;;;;;;;100.63;38.75;;;;;;;;;;5049701;28;20049;-75
2022/12/13 08:44:39;;;;;;;96.60;38.85;;;;;;;;;;5016918;28;20507;-76
2022/12/13 08:47:05;;;;;;;89.78;36.50;;;;;;;;;;5043728;28;20060;-77
2022/12/13 08:49:31;;;;;;;94.72;37.70;;;;;;;;;;5053111;28;20106;-74
2022/12/13 08:51:57;;;;;;;94.38;36.88;;;;;;;;;;5037790;28;20114;-75
2022/12/13 08:54:23;;;;;;;101.93;39.70;;;;;;;;;;5054321;28;20057;-75
2022/12/13 08:56:49;;;;;;;93.90;37.20;;;;;;;;;;5053275;28;20053;-75
2022/12/13 08:59:17;;;;;;;95.50;38.10;;;;;;;;;;5050085;28;20052;-75
2022/12/13 09:01:43;;;;;;;107.00;39.38;;;;;;;;;;5031491;28;20495;-75
2022/12/13 09:04:09;;;;;;;92.68;37.67;;;;;;;;;;5034289;28;20056;-75
2022/12/13 09:06:36;;;;;;;96.57;37.92;;;;;;;;;;5053585;28;20059;-75
2022/12/13 09:09:02;;;;;;;92.95;38.55;;;;;;;;;;5053707;28;20476;-75
2022/12/13 09:11:28;;;;;;;87.95;36.75;;;;;;;;;;5036621;28;20045;-75
2022/12/13 09:13:54;;;;;;;84.20;37.50;;;;;;;;;;5040756;28;20045;-75
2022/12/13 09:16:24;;;;;;;86.43;37.72;;;;;;;;;;5043560;28;20108;-75
2022/12/13 09:18:51;;;;;;;85.97;37.78;;;;;;;;;;5040345;28;20394;-76
2022/12/13 09:21:17;;;;;;;83.07;35.30;;;;;;;;;;5046824;28;20514;-76
2022/12/13 09:23:44;;;;;;;82.80;36.65;;;;;;;;;;5043529;28;20402;-76
2022/12/13 09:26:11;;;;;;;84.72;36.33;;;;;;;;;;5045423;28;20513;-76
2022/12/13 09:28:38;;;;;;;83.22;35.53;;;;;;;;;;5052445;28;20414;-76
2022/12/13 09:31:12;;;;;;;80.32;36.83;;;;;;;;;;5034494;28;20041;-77
2022/12/13 09:33:38;;;;;;;80.38;35.45;;;;;;;;;;5037168;28;20046;-76
2022/12/13 09:36:05;;;;;;;80.20;34.85;;;;;;;;;;5033603;28;20037;-76
2022/12/13 09:38:32;;;;;;;78.28;36.50;;;;;;;;;;5033340;28;20380;-75
2022/12/13 09:40:59;;;;;;;80.53;35.33;;;;;;;;;;5049294;28;20047;-76
2022/12/13 09:43:35;;;;;;;79.30;35.92;;;;;;;;;;5054229;28;20080;-75
2022/12/13 09:46:05;;;;;;;73.07;34.83;;;;;;;;;;5053616;28;20041;-75
2022/12/13 09:48:31;;;;;;;75.00;35.88;;;;;;;;;;5052783;28;20048;-76
2022/12/13 09:50:57;;;;;;;72.10;35.20;;;;;;;;;;5048414;28;20041;-77
2022/12/13 09:53:23;;;;;;;77.38;35.97;;;;;;;;;;5037003;28;20045;-76
2022/12/13 09:55:51;;;;;;;73.22;35.35;;;;;;;;;;5042357;28;20410;-77
2022/12/13 09:58:22;;;;;;;72.30;35.70;;;;;;;;;;5033842;28;20073;-76
2022/12/13 10:00:51;;;;;;;75.38;36.75;;;;;;;;;;5030696;28;20046;-77
2022/12/13 10:03:18;;;;;;;75.05;37.30;;;;;;;;;;5034371;28;20059;-77
2022/12/13 10:05:45;;;;;;;68.40;36.05;;;;;;;;;;5023234;28;20095;-77
2022/12/13 10:08:13;;;;;;;66.50;34.85;;;;;;;;;;5027813;28;20063;-76
2022/12/13 10:10:39;;;;;;;72.68;37.15;;;;;;;;;;5031138;28;20049;-77
2022/12/13 10:13:10;;;;;;;76.30;36.70;;;;;;;;;;5030174;28;20053;-77
2022/12/13 10:15:39;;;;;;;94.00;35.60;;;;;;;;;;5022483;28;20120;-77
2022/12/13 10:18:06;;;;;;;76.05;36.40;;;;;;;;;;5031501;28;20053;-77
2022/12/13 10:20:32;;;;;;;76.57;35.78;;;;;;;;;;5031093;28;20092;-76
2022/12/13 10:22:58;;;;;;;72.88;37.30;;;;;;;;;;5032376;28;20442;-76
2022/12/13 10:25:43;;;;;;;208.60;83.90;;;;;;;;;;5032305;28;20116;-76
2022/12/13 10:28:09;;;;;;;139.57;61.00;;;;;;;;;;5031732;28;20053;-77
2022/12/13 10:30:40;;;;;;;102.55;51.38;;;;;;;;;;5032834;28;20376;-77
2022/12/13 10:33:18;;;;;;;94.07;44.63;;;;;;;;;;5033123;28;20041;-80
2022/12/13 10:35:45;;;;;;;83.60;41.80;;;;;;;;;;5030901;28;20049;-77
2022/12/13 10:38:15;;;;;;;83.60;42.55;;;;;;;;;;5032713;28;20057;-77
2022/12/13 10:40:47;;;;;;;91.45;47.75;;;;;;;;;;5031005;28;20054;-76
2022/12/13 10:43:19;;;;;;;85.20;41.97;;;;;;;;;;5012765;28;20377;-76
2022/12/13 10:45:45;;;;;;;;;;;;;;;;;;5022239;28;20053;-76
2022/12/13 10:48:19;;;;;;;80.50;39.00;;;;;;;;;;5031536;28;19921;-76
2022/12/13 10:50:55;;;;;;;77.57;38.92;;;;;;;;;;5030294;28;20045;-77
2022/12/13 10:53:21;;;;;;;74.38;37.88;;;;;;;;;;5012240;28;20171;-76
2022/12/13 10:55:54;;;;;;;74.70;39.10;;;;;;;;;;5032297;28;20045;-78
2022/12/13 10:58:20;;;;;;;81.78;37.70;;;;;;;;;;5031372;28;20092;-79
2022/12/13 11:00:48;;;;;;;87.13;38.90;;;;;;;;;;5046527;28;20509;-78
2022/12/13 11:03:43;;;;;;;79.78;40.53;;;;;;;;;;5029993;28;20462;-76
2022/12/13 11:06:19;;;;;;;84.95;41.72;;;;;;;;;;5028010;28;20106;-74
2022/12/13 11:08:45;;;;;;;83.72;39.95;;;;;;;;;;5050567;28;20483;-72
2022/12/13 11:11:11;;;;;;;75.03;39.72;;;;;;;;;;5033122;28;20080;-72
2022/12/13 11:13:40;;;;;;;70.50;37.40;;;;;;;;;;5047528;28;20037;-72
2022/12/13 11:16:19;;;;;;;76.85;40.40;;;;;;;;;;5049905;28;20049;-72
2022/12/13 11:18:49;;;;;;;80.15;39.65;;;;;;;;;;5036504;28;20052;-72
2022/12/13 11:21:22;;;;;;;77.60;39.15;;;;;;;;;;5049985;28;20187;-72
2022/12/13 11:23:48;;;;;;;77.60;38.58;;;;;;;;;;5034930;28;20080;-72
2022/12/13 11:26:17;;;;;;;73.95;41.20;;;;;;;;;;5031910;28;20053;-72
2022/12/13 11:28:49;;;;;;;76.60;38.28;;;;;;;;;;5051537;28;20045;-71
2022/12/13 11:31:15;;;;;;;89.32;40.47;;;;;;;;;;5049365;28;20144;-72
2022/12/13 11:33:48;;;;;;;75.22;40.05;;;;;;;;;;5044381;28;20041;-71
2022/12/13 11:36:16;;;;;;;78.40;40.65;;;;;;;;;;5050219;28;20054;-72
2022/12/13 11:39:06;;;;;;;81.70;43.08;;;;;;;;;;5050167;28;20126;-72
2022/12/13 11:41:42;;;;;;;74.72;39.55;;;;;;;;;;5050919;28;20040;-72
2022/12/13 11:44:27;;;;;;;79.95;40.88;;;;;;;;;;5014226;28;20401;-72
2022/12/13 11:47:00;;;;;;;73.40;39.65;;;;;;;;;;5040687;28;20052;-71
2022/12/13 11:49:32;;;;;;;68.90;38.55;;;;;;;;;;5047516;28;20107;-71
2022/12/13 11:52:14;;;;;;;71.78;37.78;;;;;;;;;;5034043;28;20045;-72
2022/12/13 11:55:00;;;;;;;69.75;36.55;;;;;;;;;;5051557;28;20053;-71
2022/12/13 11:57:26;;;;;;;71.93;37.95;;;;;;;;;;5054415;28;20056;-72
2022/12/13 11:59:56;;;;;;;69.35;39.10;;;;;;;;;;5042272;28;20145;-71
2022/12/13 12:02:29;;;;;;;65.50;37.00;;;;;;;;;;5048104;28;20091;-71
2022/12/13 12:04:56;;;;;;;68.60;39.33;;;;;;;;;;5054786;28;20372;-72
2022/12/13 12:07:24;;;;;;;74.68;37.15;;;;;;;;;;5053400;28;20435;-71
2022/12/13 12:09:57;;;;;;;66.78;38.00;;;;;;;;;;5053611;28;20048;-72
2022/12/13 12:12:31;;;;;;;71.65;38.03;;;;;;;;;;5053912;28;20499;-71
2022/12/13 12:15:02;;;;;;;71.72;37.83;;;;;;;;;;5052728;28;20029;-71
2022/12/13 12:17:28;;;;;;;63.65;36.97;;;;;;;;;;5050062;28;20134;-72
2022/12/13 12:19:56;;;;;;;66.00;36.38;;;;;;;;;;5033060;28;20084;-71
2022/12/13 12:22:25;;;;;;;60.97;36.05;;;;;;;;;;5033665;28;20037;-71
2022/12/13 12:24:56;;;;;;;62.22;35.17;;;;;;;;;;5052275;28;20090;-72
2022/12/13 12:27:27;;;;;;;66.10;38.58;;;;;;;;;;5051179;28;20380;-72
2022/12/13 12:30:12;;;;;;;66.22;36.15;;;;;;;;;;5048830;28;20049;-71
2022/12/13 12:32:43;;;;;;;64.88;36.25;;;;;;;;;;5045324;28;20075;-71
2022/12/13 12:35:28;;;;;;;73.30;37.58;;;;;;;;;;5042856;28;20049;-72
2022/12/13 12:37:57;;;;;;;62.63;35.75;;;;;;;;;;5039402;28;20047;-72
2022/12/13 12:40:31;;;;;;;64.47;36.70;;;;;;;;;;5035401;28;20041;-71
2022/12/13 12:43:16;;;;;;;66.15;40.17;;;;;;;;;;5052892;28;20511;-71
2022/12/13 12:46:01;;;;;;;68.78;37.60;;;;;;;;;;5042010;28;20100;-71
2022/12/13 12:48:27;;;;;;;61.83;35.95;;;;;;;;;;5049761;28;20044;-71
2022/12/13 12:50:56;;;;;;;61.95;35.30;;;;;;;;;;5053965;28;20045;-72
2022/12/13 12:53:25;;;;;;;63.78;36.17;;;;;;;;;;5046412;28;20086;-71
2022/12/13 12:55:56;;;;;;;64.80;36.45;;;;;;;;;;5036120;28;20130;-71
2022/12/13 12:58:35;;;;;;;57.05;33.80;;;;;;;;;;5035887;28;20059;-71
2022/12/13 13:01:20;;;;;;;55.88;33.70;;;;;;;;;;5043236;28;20065;-71
2022/12/13 13:03:47;;;;;;;57.15;33.97;;;;;;;;;;5037785;28;20061;-71
2022/12/13 13:06:16;;;;;;;56.78;34.30;;;;;;;;;;5050702;28;20566;-71
2022/12/13 13:09:01;;;;;;;57.58;32.25;;;;;;;;;;5053122;28;20474;-71
2022/12/13 13:11:29;;;;;;;53.17;32.00;;;;;;;;;;5035079;28;20149;-72
2022/12/13 13:13:58;;;;;;;57.85;33.63;;;;;;;;;;5046018;28;20060;-71
2022/12/13 13:16:27;;;;;;;59.80;34.05;;;;;;;;;;5033379;28;20093;-71
2022/12/13 13:18:57;;;;;;;55.85;35.25;;;;;;;;;;5053456;28;20052;-70
2022/12/13 13:21:23;;;;;;;65.72;36.75;;;;;;;;;;5052239;28;20406;-70
2022/12/13 13:24:01;;;;;;;67.05;37.55;;;;;;;;;;5053497;28;20045;-71
2022/12/13 13:26:47;;;;;;;73.38;42.20;;;;;;;;;;5051198;28;20037;-71
2022/12/13 13:29:25;;;;;;;61.72;35.78;;;;;;;;;;5047305;28;20055;-71
2022/12/13 13:31:54;;;;;;;61.63;36.42;;;;;;;;;;5051959;28;20041;-70
2022/12/13 13:34:29;;;;;;;61.08;37.72;;;;;;;;;;5017477;28;20087;-70
2022/12/13 13:36:56;;;;;;;58.88;34.72;;;;;;;;;;5052432;28;20532;-71
2022/12/13 13:39:28;;;;;;;59.42;35.45;;;;;;;;;;5052437;28;20126;-70
2022/12/13 13:41:55;;;;;;;64.03;37.58;;;;;;;;;;5049586;28;20041;-71
2022/12/13 13:44:34;;;;;;;57.13;33.97;;;;;;;;;;5050920;28;20053;-71
2022/12/13 13:47:16;;;;;;;57.00;34.35;;;;;;;;;;5052913;28;20041;-71
2022/12/13 13:49:42;;;;;;;;;;;;;;;;;;5054482;28;20062;-71
2022/12/13 13:52:17;;;;;;;54.67;33.35;;;;;;;;;;5052246;28;19987;-71
2022/12/13 13:54:43;;;;;;;59.20;35.20;;;;;;;;;;5052718;28;20037;-71
2022/12/13 13:57:09;;;;;;;58.63;34.20;;;;;;;;;;5052209;28;20110;-71
2022/12/13 13:59:44;;;;;;;54.65;34.47;;;;;;;;;;5051586;28;20397;-71
2022/12/13 14:02:20;;;;;;;58.17;34.70;;;;;;;;;;5047403;28;20123;-70
2022/12/13 14:04:46;;;;;;;55.95;35.78;;;;;;;;;;5045003;28;20388;-70
2022/12/13 14:07:30;;;;;;;64.63;38.58;;;;;;;;;;5045876;28;20124;-70
2022/12/13 14:10:18;;;;;;;62.33;36.67;;;;;;;;;;5024435;28;20049;-71
2022/12/13 14:13:13;;;;;;;63.20;37.72;;;;;;;;;;5052054;28;20049;-71
2022/12/13 14:15:59;;;;;;;65.90;35.88;;;;;;;;;;5032951;28;20046;-71
2022/12/13 14:18:43;;;;;;;60.20;34.97;;;;;;;;;;5046580;28;20049;-71
2022/12/13 14:21:09;;;;;;;59.50;35.50;;;;;;;;;;5051448;28;20124;-71
2022/12/13 14:23:41;;;;;;;65.90;36.47;;;;;;;;;;5031931;28;20047;-71
2022/12/13 14:26:07;;;;;;;;;;;;;;;;;;5053139;28;20053;-71
2022/12/13 14:28:52;;;;;;;57.92;34.00;;;;;;;;;;5047081;28;19991;-70
2022/12/13 14:31:21;;;;;;;60.92;35.50;;;;;;;;;;5033671;28;20396;-71
2022/12/13 14:33:47;;;;;;;61.78;35.65;;;;;;;;;;5034689;28;20041;-71